Time;durP1;ratioP1;P1;durP2;ratioP2;P2;SDS_P1;SDS_P2;PMS_P1;PMS_P2;Temp;Humidity;BMP_temperature;BMP_pressure;BME280_temperature;BME280_humidity;BME280_pressure;Samples;Min_cycle;Max_cycle;Signal;HPM_P1;HPM_P2
2022/01/25 00:16:11;;;;;;;26.63;23.93;;;-0.50;99.90;;;;;;5099362;28;20423;-77
2022/01/25 00:26:39;;;;;;;25.30;22.63;;;-0.50;99.90;;;;;;5100363;28;20430;-78
2022/01/25 00:29:09;;;;;;;25.53;22.87;;;-0.50;99.90;;;;;;5103394;28;20464;-79
2022/01/25 00:31:39;;;;;;;24.33;22.03;;;-0.40;99.90;;;;;;5098558;28;20514;-78
2022/01/25 00:34:08;;;;;;;24.13;21.87;;;-0.40;99.90;;;;;;5105852;28;20444;-79
2022/01/25 00:36:35;;;;;;;24.00;21.77;;;-0.50;99.90;;;;;;5106949;28;20862;-78
2022/01/25 00:39:04;;;;;;;25.83;23.43;;;-0.40;99.90;;;;;;5092994;28;20539;-78
2022/01/25 00:41:30;;;;;;;26.87;24.07;;;-0.40;99.90;;;;;;5104692;28;20528;-79
2022/01/25 00:44:00;;;;;;;26.67;23.83;;;-0.30;99.90;;;;;;5107701;28;20444;-78
2022/01/25 00:46:27;;;;;;;26.90;24.07;;;-0.30;99.90;;;;;;5100826;28;20802;-79
2022/01/25 00:48:58;;;;;;;26.37;23.77;;;-0.30;99.90;;;;;;5098015;28;20438;-78
2022/01/25 00:54:27;;;;;;;27.03;24.17;;;-0.30;99.90;;;;;;5099621;28;20476;-79
2022/01/25 00:56:55;;;;;;;27.50;24.73;;;-0.30;99.90;;;;;;5108883;28;20440;-78
2022/01/25 00:59:24;;;;;;;27.77;24.87;;;-0.30;99.90;;;;;;5104506;28;20440;-78
2022/01/25 01:01:54;;;;;;;29.73;26.13;;;-0.30;99.90;;;;;;5113106;28;20461;-79
2022/01/25 01:04:21;;;;;;;27.17;24.43;;;-0.30;99.90;;;;;;5106473;27;20518;-79
2022/01/25 01:06:51;;;;;;;28.87;25.60;;;-0.30;99.90;;;;;;5101365;28;20452;-79
2022/01/25 01:09:21;;;;;;;28.60;25.13;;;-0.30;99.90;;;;;;5099463;28;20537;-78
2022/01/25 01:11:54;;;;;;;26.87;24.03;;;-0.30;99.90;;;;;;5099600;28;20473;-78
2022/01/25 01:14:36;;;;;;;26.53;23.93;;;-0.30;99.90;;;;;;5079569;28;20427;-78
2022/01/25 01:30:58;;;;;;;27.87;24.20;;;-0.60;99.90;;;;;;5082299;28;20662;-79
2022/01/25 01:33:53;;;;;;;26.63;23.47;;;-0.60;99.90;;;;;;5085027;28;20435;-77
2022/01/25 01:39:44;;;;;;;25.67;23.07;;;-0.60;99.90;;;;;;5089438;28;20425;-79
2022/01/25 01:45:12;;;;;;;25.77;23.23;;;-0.60;99.90;;;;;;5090323;28;20534;-79
2022/01/25 01:47:47;;;;;;;24.37;22.17;;;-0.60;99.90;;;;;;5086261;28;20480;-79
2022/01/25 01:50:26;;;;;;;27.80;24.93;;;-0.70;99.90;;;;;;5079670;28;20432;-78
2022/01/25 01:52:53;;;;;;;28.67;25.50;;;-0.70;99.90;;;;;;5093490;28;20461;-79
2022/01/25 01:55:22;;;;;;;29.57;25.97;;;-0.80;99.90;;;;;;5093494;28;20442;-78
2022/01/25 01:57:49;;;;;;;27.87;24.17;;;-0.80;99.90;;;;;;5096159;28;21028;-76
2022/01/25 02:00:17;;;;;;;27.70;24.67;;;-0.90;99.90;;;;;;5087177;28;20660;-77
2022/01/25 02:02:44;;;;;;;28.93;25.93;;;-0.90;99.90;;;;;;5092668;28;21245;-78
2022/01/25 02:05:11;;;;;;;30.87;25.37;;;-0.90;99.90;;;;;;5087991;28;20444;-77
2022/01/25 02:07:38;;;;;;;30.37;25.43;;;-0.90;99.90;;;;;;5087044;28;20860;-77
2022/01/25 02:10:07;;;;;;;26.70;23.97;;;-0.90;99.90;;;;;;5092632;28;20522;-77
2022/01/25 02:12:36;;;;;;;26.10;23.60;;;-1.00;99.90;;;;;;5083964;28;20452;-77
2022/01/25 02:15:03;;;;;;;28.23;24.60;;;-1.00;99.90;;;;;;5098139;28;20496;-77
2022/01/25 02:17:52;;;;;;;27.00;24.10;;;-1.10;99.90;;;;;;5085465;28;20449;-77
2022/01/25 02:23:17;;;;;;;28.20;25.20;;;-1.20;99.90;;;;;;5090471;28;20570;-77
2022/01/25 02:25:44;;;;;;;32.67;26.03;;;-1.20;99.90;;;;;;5081169;28;20489;-77
2022/01/25 02:28:11;;;;;;;28.10;25.10;;;-1.20;99.90;;;;;;5089370;28;20442;-77
2022/01/25 02:30:38;;;;;;;29.87;25.40;;;-1.20;99.90;;;;;;5093278;28;20952;-77
2022/01/25 02:33:05;;;;;;;29.63;24.33;;;-1.30;99.90;;;;;;5092912;28;20996;-77
2022/01/25 02:35:34;;;;;;;30.00;25.27;;;-1.30;99.90;;;;;;5089334;28;20452;-78
2022/01/25 02:38:01;;;;;;;30.30;26.30;;;-1.30;99.90;;;;;;5084029;28;20478;-77
2022/01/25 02:40:27;;;;;;;29.63;25.80;;;-1.30;99.90;;;;;;5093597;28;20468;-77
2022/01/25 02:42:55;;;;;;;31.87;26.17;;;-1.20;99.90;;;;;;5089619;28;20463;-77
2022/01/25 02:45:22;;;;;;;31.13;25.83;;;-1.20;99.90;;;;;;5087286;28;20428;-77
2022/01/25 02:50:34;;;;;;;29.33;26.27;;;-1.20;99.90;;;;;;5086956;28;20439;-77
2022/01/25 02:53:01;;;;;;;26.40;23.53;;;-1.20;99.90;;;;;;5088034;28;20459;-77
2022/01/25 02:55:28;;;;;;;25.37;22.73;;;-1.30;99.90;;;;;;5086569;28;20448;-77
2022/01/25 02:57:55;;;;;;;27.30;24.40;;;-1.30;99.90;;;;;;5087656;28;20940;-77
2022/01/25 03:00:22;;;;;;;32.63;26.23;;;-1.30;99.90;;;;;;5081663;28;20512;-78
2022/01/25 03:02:49;;;;;;;27.30;24.50;;;-1.30;99.90;;;;;;5088390;28;20542;-77
2022/01/25 03:05:15;;;;;;;26.80;23.53;;;-1.30;99.90;;;;;;5092729;28;20443;-77
2022/01/25 03:07:44;;;;;;;28.27;25.20;;;-1.30;99.90;;;;;;5093826;28;20432;-77
2022/01/25 03:10:12;;;;;;;28.17;24.50;;;-1.30;99.90;;;;;;5076996;28;20479;-77
2022/01/25 03:12:44;;;;;;;28.07;25.10;;;-1.40;99.90;;;;;;5086161;28;21005;-77
2022/01/25 03:15:25;;;;;;;28.87;25.77;;;-1.40;99.90;;;;;;5088984;28;20452;-77
2022/01/25 03:17:55;;;;;;;30.33;26.27;;;-1.40;99.90;;;;;;5088488;28;20815;-77
2022/01/25 03:20:34;;;;;;;29.37;26.27;;;-1.40;99.90;;;;;;5086990;28;20495;-78
2022/01/25 03:23:16;;;;;;;28.50;25.33;;;-1.50;99.90;;;;;;5085615;28;20492;-77
2022/01/25 03:25:42;;;;;;;30.33;26.23;;;-1.50;99.90;;;;;;5081904;28;20505;-77
2022/01/25 03:28:09;;;;;;;28.00;23.90;;;-1.50;99.90;;;;;;5087370;28;20471;-77
2022/01/25 03:30:36;;;;;;;27.80;25.00;;;-1.60;99.90;;;;;;5091334;28;20470;-78
2022/01/25 03:33:03;;;;;;;27.77;24.83;;;-1.60;99.90;;;;;;5082466;28;20479;-78
2022/01/25 03:35:30;;;;;;;30.33;25.27;;;-1.70;99.90;;;;;;5083941;28;20459;-76
2022/01/25 03:37:57;;;;;;;32.53;27.50;;;-1.70;99.90;;;;;;5088981;28;20464;-77
2022/01/25 03:40:25;;;;;;;32.07;26.23;;;-1.70;99.90;;;;;;5087406;28;20468;-77
2022/01/25 03:42:54;;;;;;;29.33;25.17;;;-1.70;99.90;;;;;;5091916;28;20472;-79
2022/01/25 03:45:27;;;;;;;29.13;25.97;;;-1.70;99.90;;;;;;5095310;28;20813;-79
2022/01/25 03:49:48;;;;;;;28.10;24.97;;;-1.70;99.90;;;;;;5094769;28;20803;-78
2022/01/25 03:50:49;;;;;;;28.67;24.07;;;-1.70;99.90;;;;;;5082991;28;21000;-77
2022/01/25 03:53:18;;;;;;;28.63;24.33;;;-1.70;99.90;;;;;;5088356;28;20580;-77
2022/01/25 03:55:47;;;;;;;29.07;25.27;;;-1.70;99.90;;;;;;5085673;28;20485;-77
2022/01/25 03:58:14;;;;;;;26.93;24.03;;;-1.70;99.90;;;;;;5081970;28;20494;-77
2022/01/25 04:00:43;;;;;;;28.90;25.43;;;-1.70;99.90;;;;;;5081756;28;20486;-77
2022/01/25 04:03:15;;;;;;;26.63;23.70;;;-1.70;99.90;;;;;;5084994;28;20535;-78
2022/01/25 04:05:50;;;;;;;30.47;24.93;;;-1.70;99.90;;;;;;5083122;28;20425;-77
2022/01/25 04:08:19;;;;;;;34.30;24.07;;;-1.70;99.90;;;;;;5085738;28;20445;-77
2022/01/25 04:10:47;;;;;;;25.70;23.10;;;-1.70;99.90;;;;;;5090059;28;21051;-77
2022/01/25 04:13:15;;;;;;;29.57;23.27;;;-1.70;99.90;;;;;;5087222;28;20459;-81
2022/01/25 04:15:44;;;;;;;26.73;23.83;;;-1.70;99.90;;;;;;5085215;28;20944;-77
2022/01/25 04:21:05;;;;;;;27.43;24.50;;;-1.70;99.90;;;;;;5085971;28;20468;-77
2022/01/25 04:26:18;;;;;;;33.00;26.03;;;-1.70;99.90;;;;;;5084739;28;20938;-78
2022/01/25 04:28:45;;;;;;;27.50;24.53;;;-1.80;99.90;;;;;;5084847;28;20425;-78
2022/01/25 04:31:14;;;;;;;27.67;23.80;;;-1.80;99.90;;;;;;5087891;28;20511;-78
2022/01/25 04:33:44;;;;;;;26.83;24.07;;;-1.80;99.90;;;;;;5084326;28;20477;-77
2022/01/25 04:36:38;;;;;;;27.03;23.90;;;-1.80;99.90;;;;;;5089215;28;20527;-80
2022/01/25 04:50:06;;;;;;;28.80;22.90;;;-1.80;99.90;;;;;;5091534;28;20527;-80
2022/01/25 04:52:41;;;;;;;29.77;23.90;;;-1.90;99.90;;;;;;5096215;28;20457;-77
2022/01/25 04:55:16;;;;;;;27.33;23.60;;;-2.00;99.90;;;;;;5095677;28;20427;-82
2022/01/25 04:57:49;;;;;;;27.70;24.70;;;-2.10;99.90;;;;;;5090788;28;20816;-79
2022/01/25 05:00:19;;;;;;;27.63;24.67;;;-2.10;99.90;;;;;;5089156;28;20838;-81
2022/01/25 05:02:51;;;;;;;27.07;24.17;;;-2.10;99.90;;;;;;5093421;28;20479;-80
2022/01/25 05:05:24;;;;;;;27.23;23.73;;;-2.00;99.90;;;;;;5090477;28;20448;-79
2022/01/25 05:07:57;;;;;;;26.87;24.07;;;-2.10;99.90;;;;;;5088459;28;20448;-81
2022/01/25 05:10:25;;;;;;;26.97;24.30;;;-2.10;99.90;;;;;;5093519;28;20532;-79
2022/01/25 05:13:08;;;;;;;27.40;24.40;;;-2.10;99.90;;;;;;5087350;28;20509;-81
2022/01/25 05:16:04;;;;;;;28.17;24.10;;;-2.00;99.90;;;;;;5093099;28;20451;-80
2022/01/25 05:18:41;;;;;;;25.33;22.67;;;-2.00;99.90;;;;;;5096890;28;20450;-81
2022/01/25 05:23:52;;;;;;;28.70;24.70;;;-2.00;99.90;;;;;;5094696;28;20443;-81
2022/01/25 05:26:19;;;;;;;29.40;25.63;;;-2.00;99.90;;;;;;5090988;28;20456;-81
2022/01/25 05:28:48;;;;;;;27.07;24.17;;;-1.90;99.90;;;;;;5090307;28;20493;-80
2022/01/25 05:31:14;;;;;;;27.13;24.40;;;-2.00;99.90;;;;;;5088590;28;21005;-81
2022/01/25 05:33:41;;;;;;;26.70;23.90;;;-2.00;99.90;;;;;;5093519;28;20447;-81
2022/01/25 05:36:08;;;;;;;30.20;24.73;;;-2.00;99.90;;;;;;5093003;28;20433;-81
2022/01/25 05:38:35;;;;;;;30.87;25.93;;;-2.00;99.90;;;;;;5095187;28;20428;-80
2022/01/25 05:41:03;;;;;;;29.60;26.47;;;-2.00;99.90;;;;;;5090925;28;20471;-80
2022/01/25 05:46:34;;;;;;;37.70;33.67;;;-1.90;99.90;;;;;;5032745;28;20944;-81
2022/01/25 05:49:01;;;;;;;32.83;28.57;;;-1.90;99.90;;;;;;5088565;28;20520;-78
2022/01/25 05:51:28;;;;;;;28.90;25.70;;;-1.90;99.90;;;;;;5083856;28;20514;-77
2022/01/25 05:53:55;;;;;;;30.13;26.77;;;-1.90;99.90;;;;;;5084455;28;20495;-77
2022/01/25 05:56:21;;;;;;;29.77;25.90;;;-1.90;99.90;;;;;;5093068;28;20866;-78
2022/01/25 05:58:48;;;;;;;27.37;24.77;;;-1.90;99.90;;;;;;5089365;28;20444;-77
2022/01/25 06:01:15;;;;;;;26.83;24.13;;;-1.90;99.90;;;;;;5086795;28;20480;-77
2022/01/25 06:03:45;;;;;;;27.00;24.37;;;-1.90;99.90;;;;;;5088083;28;20508;-77
2022/01/25 06:06:12;;;;;;;27.33;24.40;;;-1.90;99.90;;;;;;5090936;28;20447;-78
2022/01/25 06:08:39;;;;;;;27.53;24.60;;;-1.90;99.90;;;;;;5087828;28;20485;-77
2022/01/25 06:11:07;;;;;;;28.97;25.80;;;-1.90;99.90;;;;;;5085921;28;20471;-77
2022/01/25 06:13:34;;;;;;;26.63;23.70;;;-1.80;99.90;;;;;;5103905;22;20910;-84
2022/01/25 06:16:01;;;;;;;27.40;24.27;;;-1.80;99.90;;;;;;5058092;28;20450;-85
2022/01/25 06:18:28;;;;;;;29.20;25.07;;;-1.70;99.90;;;;;;5066365;28;20541;-84
2022/01/25 06:20:56;;;;;;;27.33;24.03;;;-1.70;99.90;;;;;;5059412;28;20434;-84
2022/01/25 06:23:23;;;;;;;28.73;25.77;;;-1.70;99.90;;;;;;5057418;28;20485;-84
2022/01/25 06:25:50;;;;;;;28.00;25.00;;;-1.80;99.90;;;;;;5058120;28;20453;-82
2022/01/25 06:28:18;;;;;;;27.87;25.07;;;-1.80;99.90;;;;;;5056919;28;20449;-83
2022/01/25 06:30:45;;;;;;;31.33;25.17;;;-1.80;99.90;;;;;;5056326;28;20508;-85
2022/01/25 06:33:12;;;;;;;28.03;25.20;;;-1.80;99.90;;;;;;5057459;28;20472;-85
2022/01/25 06:35:39;;;;;;;27.57;24.53;;;-1.80;99.90;;;;;;5057951;28;20518;-83
2022/01/25 06:38:08;;;;;;;30.13;26.70;;;-1.80;99.90;;;;;;5057088;28;20453;-85
2022/01/25 06:40:35;;;;;;;27.37;24.47;;;-1.90;99.90;;;;;;5057654;28;20525;-86
2022/01/25 06:43:01;;;;;;;27.33;24.60;;;-1.90;99.90;;;;;;5057818;28;20477;-83
2022/01/25 06:45:28;;;;;;;27.57;24.60;;;-2.00;99.90;;;;;;5050444;28;20441;-84
2022/01/25 06:47:55;;;;;;;30.63;27.10;;;-2.00;99.90;;;;;;5058961;28;20442;-87
2022/01/25 06:50:23;;;;;;;29.53;26.40;;;-2.00;99.90;;;;;;5065208;28;20887;-86
2022/01/25 06:52:51;;;;;;;29.90;26.00;;;-2.00;99.90;;;;;;5064053;28;20453;-87
2022/01/25 06:55:20;;;;;;;30.23;25.60;;;-2.00;99.90;;;;;;5063474;28;20533;-86
2022/01/25 06:57:47;;;;;;;30.67;25.60;;;-2.00;99.90;;;;;;5064639;28;20992;-87
2022/01/25 07:00:17;;;;;;;27.27;24.47;;;-1.90;99.90;;;;;;5062873;28;20442;-84
2022/01/25 07:02:44;;;;;;;28.60;25.53;;;-2.00;99.90;;;;;;5062794;28;20466;-85
2022/01/25 07:05:12;;;;;;;31.50;25.37;;;-1.90;99.90;;;;;;5064300;28;20477;-85
2022/01/25 07:07:39;;;;;;;28.90;25.80;;;-1.90;99.90;;;;;;5063140;28;20468;-84
2022/01/25 07:10:08;;;;;;;27.80;24.77;;;-1.90;99.90;;;;;;5062049;28;20484;-86
2022/01/25 07:12:37;;;;;;;30.53;25.43;;;-1.90;99.90;;;;;;5056166;28;20501;-85
2022/01/25 07:15:05;;;;;;;34.77;27.13;;;-1.90;99.90;;;;;;5062755;28;20565;-84
2022/01/25 07:17:32;;;;;;;30.43;25.77;;;-1.80;99.90;;;;;;5061863;28;20448;-85
2022/01/25 07:19:59;;;;;;;29.63;25.37;;;-1.80;99.90;;;;;;5062699;28;20522;-84
2022/01/25 07:22:26;;;;;;;28.70;24.27;;;-1.70;99.90;;;;;;5063448;28;20824;-84
2022/01/25 07:24:53;;;;;;;27.47;24.47;;;-1.80;99.90;;;;;;5063359;28;20452;-84
2022/01/25 07:27:20;;;;;;;27.97;24.67;;;-1.70;99.90;;;;;;5063193;28;20469;-83
2022/01/25 07:29:49;;;;;;;27.67;24.77;;;-1.60;99.90;;;;;;5062578;28;20477;-83
2022/01/25 07:32:15;;;;;;;28.67;24.83;;;-1.60;99.90;;;;;;5062350;28;20473;-85
2022/01/25 07:34:43;;;;;;;26.93;22.40;;;-1.50;99.90;;;;;;5062294;28;21061;-85
2022/01/25 07:37:10;;;;;;;27.23;23.83;;;-1.50;99.90;;;;;;5063362;28;20441;-85
2022/01/25 07:39:37;;;;;;;24.77;22.23;;;-1.40;99.90;;;;;;5062415;28;20446;-84
2022/01/25 07:42:05;;;;;;;24.53;21.80;;;-1.30;99.90;;;;;;5063591;28;20501;-84
2022/01/25 07:44:41;;;;;;;26.57;22.10;;;-1.30;99.90;;;;;;5062318;28;20849;-84
2022/01/25 07:47:09;;;;;;;24.70;21.67;;;-1.20;99.90;;;;;;5061478;28;20476;-85
2022/01/25 07:49:37;;;;;;;25.80;23.20;;;-1.20;99.90;;;;;;5062199;28;20465;-85
2022/01/25 07:52:05;;;;;;;26.97;23.67;;;-1.10;99.90;;;;;;5061922;28;20518;-84
2022/01/25 07:54:32;;;;;;;25.77;23.00;;;-1.10;99.90;;;;;;5061650;28;20469;-85
2022/01/25 07:56:59;;;;;;;27.17;23.23;;;-1.00;99.90;;;;;;5061725;28;20489;-85
2022/01/25 07:59:26;;;;;;;24.97;21.67;;;-0.90;99.90;;;;;;5063134;28;20469;-85
2022/01/25 08:01:54;;;;;;;24.87;22.03;;;-0.80;99.90;;;;;;5061910;28;20477;-84
2022/01/25 08:04:22;;;;;;;26.23;23.40;;;-0.70;99.90;;;;;;5063255;28;20452;-85
2022/01/25 08:06:49;;;;;;;24.37;21.83;;;-0.60;99.90;;;;;;5063856;28;20434;-85
2022/01/25 08:09:16;;;;;;;24.63;22.03;;;-0.50;99.90;;;;;;5061359;28;20445;-86
2022/01/25 08:11:43;;;;;;;26.63;23.07;;;-0.30;99.90;;;;;;5062230;28;20482;-85
2022/01/25 08:14:14;;;;;;;26.90;24.10;;;0.00;99.90;;;;;;5062289;28;20838;-85
2022/01/25 08:16:43;;;;;;;30.97;25.00;;;0.20;99.90;;;;;;5060809;28;20447;-85
2022/01/25 08:19:11;;;;;;;26.50;22.87;;;0.40;99.90;;;;;;5060998;28;20468;-85
2022/01/25 08:21:40;;;;;;;29.90;23.60;;;0.70;99.90;;;;;;5063306;28;20942;-84
2022/01/25 08:24:08;;;;;;;27.17;23.67;;;0.90;99.90;;;;;;5067566;28;20463;-85
2022/01/25 08:26:36;;;;;;;25.67;22.97;;;1.20;99.90;;;;;;5066312;28;20457;-86
2022/01/25 08:29:04;;;;;;;26.40;22.63;;;1.50;99.90;;;;;;5068573;28;20438;-85
2022/01/25 08:31:32;;;;;;;25.37;22.70;;;1.80;99.90;;;;;;5068195;28;20445;-85
2022/01/25 08:34:00;;;;;;;25.90;22.37;;;2.10;99.90;;;;;;5065796;28;20472;-86
2022/01/25 08:36:28;;;;;;;25.33;22.73;;;2.50;99.90;;;;;;5061940;28;20442;-84
2022/01/25 08:38:56;;;;;;;24.90;22.43;;;2.90;99.90;;;;;;5061271;28;20474;-84
2022/01/25 08:41:24;;;;;;;25.47;22.40;;;3.30;99.90;;;;;;5061886;28;20826;-84
2022/01/25 08:43:50;;;;;;;23.07;20.57;;;3.60;99.90;;;;;;5059945;28;20477;-84
2022/01/25 08:46:19;;;;;;;23.10;20.67;;;3.90;99.90;;;;;;5060349;28;20202;-84
2022/01/25 08:48:46;;;;;;;19.10;16.97;;;4.10;99.90;;;;;;5061274;28;20220;-84
2022/01/25 08:51:16;;;;;;;21.70;18.40;;;4.20;99.90;;;;;;5059331;28;20687;-84
2022/01/25 08:53:43;;;;;;;21.27;19.17;;;4.50;99.90;;;;;;5059738;28;20695;-84
2022/01/25 08:56:12;;;;;;;18.77;13.13;;;4.50;99.90;;;;;;5059047;28;20206;-84
2022/01/25 08:58:40;;;;;;;18.10;15.13;;;4.60;99.90;;;;;;5058587;28;20203;-84
2022/01/25 09:01:07;;;;;;;19.13;14.57;;;4.80;99.90;;;;;;5058900;28;20200;-84
2022/01/25 09:03:34;;;;;;;20.70;13.40;;;4.80;99.90;;;;;;5057706;28;20277;-84
2022/01/25 09:06:01;;;;;;;22.40;19.90;;;4.80;99.90;;;;;;5057895;28;20206;-83
2022/01/25 09:08:29;;;;;;;21.80;19.73;;;4.80;99.90;;;;;;5056642;28;20591;-85
2022/01/25 09:11:00;;;;;;;20.90;18.83;;;4.90;99.90;;;;;;5058618;28;20203;-84
2022/01/25 09:13:29;;;;;;;20.80;18.80;;;4.80;99.90;;;;;;5058612;28;20253;-85
2022/01/25 09:15:56;;;;;;;20.30;18.23;;;4.90;99.90;;;;;;5057963;28;20195;-85
2022/01/25 09:18:25;;;;;;;18.80;16.97;;;4.70;99.90;;;;;;5058162;28;20211;-85
2022/01/25 09:20:52;;;;;;;19.27;17.37;;;4.80;99.90;;;;;;5058792;28;20203;-85
2022/01/25 09:23:20;;;;;;;18.47;16.47;;;4.70;99.90;;;;;;5058533;28;20227;-84
2022/01/25 09:25:49;;;;;;;19.07;17.27;;;4.60;99.90;;;;;;5059023;28;20199;-85
2022/01/25 09:28:16;;;;;;;22.83;17.40;;;4.50;99.90;;;;;;5058320;28;20210;-85
2022/01/25 09:30:45;;;;;;;20.63;18.43;;;4.30;99.90;;;;;;5059881;28;20202;-85
2022/01/25 09:33:12;;;;;;;19.17;17.23;;;4.10;99.90;;;;;;5056906;28;20228;-85
2022/01/25 09:35:39;;;;;;;20.07;16.47;;;4.10;99.90;;;;;;5057574;28;20550;-82
2022/01/25 09:38:07;;;;;;;19.10;17.20;;;4.00;99.90;;;;;;5056818;28;20203;-82
2022/01/25 09:40:34;;;;;;;18.93;17.10;;;3.90;99.90;;;;;;5056335;28;20221;-83
2022/01/25 09:43:02;;;;;;;19.47;17.40;;;3.80;99.90;;;;;;5058641;28;20695;-84
2022/01/25 09:45:29;;;;;;;20.70;18.60;;;3.70;99.90;;;;;;5048115;28;20199;-84
2022/01/25 09:47:58;;;;;;;21.17;18.97;;;3.60;99.90;;;;;;5056036;28;20202;-84
2022/01/25 09:50:26;;;;;;;20.47;18.47;;;3.50;99.90;;;;;;5056421;28;20200;-82
2022/01/25 09:52:54;;;;;;;20.83;18.73;;;3.50;99.90;;;;;;5057216;28;20560;-83
2022/01/25 09:55:25;;;;;;;21.80;19.60;;;3.40;99.90;;;;;;5055745;28;20207;-82
2022/01/25 09:57:52;;;;;;;21.43;19.30;;;3.40;99.90;;;;;;5056199;28;20213;-83
2022/01/25 10:00:24;;;;;;;21.30;19.10;;;3.40;99.90;;;;;;5057577;28;20195;-83
2022/01/25 10:02:58;;;;;;;20.80;18.80;;;3.30;99.90;;;;;;5055736;28;20225;-82
2022/01/25 10:05:30;;;;;;;20.60;18.40;;;3.30;99.90;;;;;;5057233;28;20619;-83
2022/01/25 10:08:02;;;;;;;20.63;18.40;;;3.30;99.90;;;;;;5055503;28;20536;-82
2022/01/25 10:10:30;;;;;;;21.20;19.10;;;3.30;99.90;;;;;;5047179;28;20208;-83
2022/01/25 10:13:07;;;;;;;20.03;18.00;;;3.30;99.90;;;;;;5056027;28;20245;-83
2022/01/25 10:15:34;;;;;;;20.27;18.33;;;3.30;99.90;;;;;;5056760;28;20249;-82
2022/01/25 10:18:01;;;;;;;20.03;18.03;;;3.30;99.90;;;;;;5055380;28;20610;-82
2022/01/25 10:20:32;;;;;;;19.90;17.90;;;3.40;99.90;;;;;;5055204;28;20209;-82
2022/01/25 10:23:01;;;;;;;20.00;17.80;;;3.30;99.90;;;;;;5057294;28;20249;-83
2022/01/25 10:25:36;;;;;;;19.90;17.90;;;3.30;99.90;;;;;;5050393;28;20210;-83
2022/01/25 10:28:04;;;;;;;20.23;18.23;;;3.20;99.90;;;;;;5055621;28;20451;-82
2022/01/25 10:30:33;;;;;;;18.77;17.03;;;3.30;99.90;;;;;;5055456;28;20203;-83
2022/01/25 10:33:03;;;;;;;20.17;18.10;;;3.30;99.90;;;;;;5058003;28;20457;-83
2022/01/25 10:35:31;;;;;;;20.37;18.27;;;3.40;99.90;;;;;;5052312;28;20229;-82
2022/01/25 10:37:58;;;;;;;20.67;18.57;;;3.40;99.90;;;;;;5054930;28;20209;-83
2022/01/25 10:40:38;;;;;;;19.67;17.80;;;3.40;99.90;;;;;;5057568;28;20211;-84
2022/01/25 10:43:06;;;;;;;19.23;17.40;;;3.40;99.90;;;;;;5053847;28;20253;-83
2022/01/25 10:45:33;;;;;;;17.63;15.93;;;3.40;99.90;;;;;;5053899;28;20698;-83
2022/01/25 10:48:00;;;;;;;18.47;16.77;;;3.50;99.90;;;;;;5053617;28;20199;-83
2022/01/25 10:50:31;;;;;;;20.67;16.83;;;3.50;99.90;;;;;;5055151;28;20206;-83
2022/01/25 10:53:08;;;;;;;16.93;15.43;;;3.60;99.90;;;;;;5055201;28;20222;-83
2022/01/25 10:55:40;;;;;;;16.53;15.03;;;3.70;99.90;;;;;;5062154;28;20200;-83
2022/01/25 10:58:08;;;;;;;17.63;16.03;;;3.80;99.90;;;;;;5055306;28;20196;-83
2022/01/25 11:00:38;;;;;;;16.07;14.57;;;3.80;99.90;;;;;;5054241;28;20206;-83
2022/01/25 11:03:05;;;;;;;16.57;15.17;;;3.80;99.90;;;;;;5053644;28;20235;-83
2022/01/25 11:05:34;;;;;;;17.07;15.37;;;3.90;99.90;;;;;;5054706;28;20273;-83
2022/01/25 11:08:12;;;;;;;17.37;15.77;;;3.90;99.90;;;;;;5055134;28;20655;-83
2022/01/25 11:10:47;;;;;;;17.27;15.47;;;3.90;99.90;;;;;;5047545;28;20688;-83
2022/01/25 11:13:34;;;;;;;17.63;15.93;;;3.90;99.90;;;;;;5055307;28;20268;-83
2022/01/25 11:16:03;;;;;;;17.27;15.57;;;3.90;99.90;;;;;;5055723;28;20655;-83
2022/01/25 11:18:31;;;;;;;17.23;15.50;;;4.00;99.90;;;;;;5050770;28;20259;-83
2022/01/25 11:21:00;;;;;;;17.97;16.17;;;4.00;99.90;;;;;;5056599;28;20202;-83
2022/01/25 11:23:31;;;;;;;17.80;16.10;;;4.00;99.90;;;;;;5057644;28;20222;-83
2022/01/25 11:26:01;;;;;;;17.73;15.93;;;4.00;99.90;;;;;;5057649;28;20199;-83
2022/01/25 11:28:31;;;;;;;17.13;15.50;;;4.00;99.90;;;;;;5057546;28;20191;-83
2022/01/25 11:31:00;;;;;;;18.47;16.67;;;4.10;99.90;;;;;;5057658;28;20295;-83
2022/01/25 11:33:29;;;;;;;18.23;16.47;;;4.10;99.90;;;;;;5057913;28;20242;-83
2022/01/25 11:35:56;;;;;;;18.07;16.27;;;4.20;99.90;;;;;;5054095;28;20694;-83
2022/01/25 11:38:33;;;;;;;19.00;17.10;;;4.20;99.90;;;;;;5051764;28;20253;-83
2022/01/25 11:41:00;;;;;;;18.47;16.60;;;4.10;99.90;;;;;;5052185;28;20469;-83
2022/01/25 11:43:27;;;;;;;20.37;18.43;;;4.10;99.90;;;;;;5051523;28;20231;-82
2022/01/25 11:46:04;;;;;;;20.63;18.63;;;4.20;99.90;;;;;;5051993;28;20203;-83
2022/01/25 11:48:39;;;;;;;21.00;18.70;;;4.10;99.90;;;;;;5052247;28;20199;-83
2022/01/25 11:51:13;;;;;;;20.57;18.47;;;4.10;99.90;;;;;;5052692;28;20193;-82
2022/01/25 11:53:43;;;;;;;20.47;18.37;;;4.20;99.90;;;;;;5051918;28;20780;-82
2022/01/25 11:56:12;;;;;;;20.40;18.40;;;4.20;99.90;;;;;;5057972;28;20198;-83
2022/01/25 11:58:40;;;;;;;20.23;18.23;;;4.20;99.90;;;;;;5056338;28;20222;-82
2022/01/25 12:01:18;;;;;;;20.53;18.40;;;4.30;99.90;;;;;;5057089;28;20195;-83
2022/01/25 12:03:47;;;;;;;19.37;17.57;;;4.30;99.90;;;;;;5051755;28;20245;-83
2022/01/25 12:06:20;;;;;;;19.60;17.60;;;4.30;99.90;;;;;;5051612;28;20195;-83
2022/01/25 12:11:58;;;;;;;20.57;18.47;;;4.40;99.90;;;;;;5041525;28;20211;-84
2022/01/25 12:14:28;;;;;;;20.33;18.33;;;4.50;99.90;;;;;;5109774;22;20234;-79
2022/01/25 12:17:10;;;;;;;18.73;17.03;;;4.50;99.90;;;;;;5075760;28;20194;-79
2022/01/25 12:19:44;;;;;;;19.97;17.87;;;4.60;99.90;;;;;;5073785;28;20222;-79
2022/01/25 12:22:35;;;;;;;19.13;17.23;;;4.60;99.90;;;;;;5069945;28;20699;-79
2022/01/25 12:25:11;;;;;;;19.10;17.20;;;4.70;99.90;;;;;;5058308;28;20239;-79
2022/01/25 12:27:53;;;;;;;19.00;17.20;;;4.70;99.90;;;;;;5054932;28;20333;-79
2022/01/25 12:30:31;;;;;;;20.17;18.27;;;4.80;99.90;;;;;;5050809;28;20192;-79
2022/01/25 12:33:03;;;;;;;19.17;17.33;;;4.80;99.90;;;;;;5050752;28;20203;-79
2022/01/25 12:35:45;;;;;;;18.27;16.53;;;4.80;99.90;;;;;;5045511;28;20247;-78
2022/01/25 12:38:14;;;;;;;20.73;17.33;;;4.90;99.90;;;;;;5045275;28;20204;-78
2022/01/25 12:41:03;;;;;;;18.63;16.73;;;4.90;99.90;;;;;;5048220;28;20639;-78
2022/01/25 12:43:38;;;;;;;18.80;17.10;;;5.00;99.90;;;;;;5054280;28;20298;-78
2022/01/25 12:46:07;;;;;;;19.80;17.83;;;5.00;99.90;;;;;;5045152;28;20195;-78
2022/01/25 12:48:36;;;;;;;19.57;17.60;;;5.10;99.90;;;;;;5056874;28;20203;-80
2022/01/25 12:51:06;;;;;;;18.57;16.87;;;5.20;99.90;;;;;;5055302;28;20210;-78
2022/01/25 12:53:35;;;;;;;19.67;17.77;;;5.20;99.90;;;;;;5047793;28;20227;-79
2022/01/25 12:56:07;;;;;;;17.87;16.17;;;5.30;99.90;;;;;;5052187;28;20203;-79
2022/01/25 12:58:34;;;;;;;16.87;15.37;;;5.30;99.90;;;;;;5048694;28;20195;-78
2022/01/25 13:01:04;;;;;;;18.83;17.13;;;5.30;99.90;;;;;;5047776;28;20371;-78
2022/01/25 13:03:33;;;;;;;18.30;16.73;;;5.40;99.90;;;;;;5061284;28;20224;-78
2022/01/25 13:06:07;;;;;;;18.77;16.97;;;5.40;99.90;;;;;;5046299;28;20210;-77
2022/01/25 13:08:39;;;;;;;17.80;16.10;;;5.40;99.90;;;;;;5042798;28;20269;-77
2022/01/25 13:11:28;;;;;;;18.83;16.97;;;5.50;99.90;;;;;;5048716;28;20196;-77
2022/01/25 13:14:02;;;;;;;19.20;17.40;;;5.50;99.90;;;;;;5044315;28;20227;-78
2022/01/25 13:16:44;;;;;;;20.03;18.13;;;5.50;99.90;;;;;;5051656;28;20199;-79
2022/01/25 13:19:12;;;;;;;16.47;14.53;;;5.50;99.90;;;;;;5054382;28;20195;-78
2022/01/25 13:21:42;;;;;;;16.93;15.33;;;5.50;99.90;;;;;;5049844;28;20207;-78
2022/01/25 13:24:10;;;;;;;14.03;10.60;;;5.50;99.90;;;;;;5055582;28;20219;-80
2022/01/25 13:26:50;;;;;;;19.50;17.50;;;5.50;99.90;;;;;;5053167;28;20196;-79
2022/01/25 13:32:18;;;;;;;17.97;16.20;;;5.50;99.90;;;;;;5049652;28;20202;-79
2022/01/25 13:34:59;;;;;;;18.07;16.37;;;5.50;99.90;;;;;;5060548;28;20245;-80
2022/01/25 13:37:26;;;;;;;18.47;16.77;;;5.60;99.90;;;;;;5050793;28;20199;-79
2022/01/25 13:39:58;;;;;;;15.73;10.90;;;5.60;99.90;;;;;;5050743;28;20203;-78
2022/01/25 13:42:35;;;;;;;16.93;12.00;;;5.60;99.90;;;;;;5048679;28;20191;-77
2022/01/25 13:48:03;;;;;;;21.13;19.03;;;5.50;99.90;;;;;;5044888;28;20221;-77
2022/01/25 13:50:31;;;;;;;19.30;17.50;;;5.60;99.90;;;;;;5052851;28;20638;-78
2022/01/25 13:52:58;;;;;;;19.30;17.50;;;5.60;99.90;;;;;;5049336;28;20226;-78
2022/01/25 13:55:25;;;;;;;19.97;18.17;;;5.60;99.90;;;;;;5053467;28;20216;-78
2022/01/25 13:57:53;;;;;;;20.30;18.30;;;5.60;99.90;;;;;;5051556;28;20207;-78
2022/01/25 14:00:22;;;;;;;20.07;18.07;;;5.60;99.90;;;;;;5050284;28;20191;-78
2022/01/25 14:02:51;;;;;;;21.67;19.43;;;5.50;99.90;;;;;;5053874;28;20274;-79
2022/01/25 14:05:18;;;;;;;20.87;18.77;;;5.60;99.90;;;;;;5050324;28;20306;-79
2022/01/25 14:07:49;;;;;;;21.70;19.40;;;5.60;99.90;;;;;;5049380;28;20301;-78